sensor_id;sensor_type;location;lat;lon;timestamp;P1;durP1;ratioP1;P2;durP2;ratioP2
7359;SDS011;3720;48.274;7.796;2023-02-15T00:02:13;80.45;;;22.55;;
7359;SDS011;3720;48.274;7.796;2023-02-15T00:04:45;65.82;;;22.58;;
7359;SDS011;3720;48.274;7.796;2023-02-15T00:07:18;39.50;;;21.60;;
7359;SDS011;3720;48.274;7.796;2023-02-15T00:09:50;76.47;;;24.92;;
7359;SDS011;3720;48.274;7.796;2023-02-15T00:12:22;43.60;;;21.05;;
7359;SDS011;3720;48.274;7.796;2023-02-15T00:14:54;65.45;;;21.42;;
7359;SDS011;3720;48.274;7.796;2023-02-15T00:17:28;74.95;;;21.02;;
7359;SDS011;3720;48.274;7.796;2023-02-15T00:20:00;43.08;;;21.02;;
7359;SDS011;3720;48.274;7.796;2023-02-15T00:22:32;45.75;;;20.92;;
7359;SDS011;3720;48.274;7.796;2023-02-15T00:25:04;36.00;;;20.15;;
7359;SDS011;3720;48.274;7.796;2023-02-15T00:27:37;36.05;;;19.45;;
7359;SDS011;3720;48.274;7.796;2023-02-15T00:30:09;40.75;;;21.45;;
7359;SDS011;3720;48.274;7.796;2023-02-15T00:32:42;38.72;;;21.23;;
7359;SDS011;3720;48.274;7.796;2023-02-15T00:35:15;41.17;;;21.83;;
7359;SDS011;3720;48.274;7.796;2023-02-15T00:37:47;36.95;;;20.63;;
7359;SDS011;3720;48.274;7.796;2023-02-15T00:40:19;42.83;;;21.33;;
7359;SDS011;3720;48.274;7.796;2023-02-15T00:42:50;39.33;;;21.55;;
7359;SDS011;3720;48.274;7.796;2023-02-15T00:45:22;39.65;;;20.95;;
7359;SDS011;3720;48.274;7.796;2023-02-15T00:47:55;38.13;;;21.00;;
7359;SDS011;3720;48.274;7.796;2023-02-15T00:50:27;38.63;;;21.08;;
7359;SDS011;3720;48.274;7.796;2023-02-15T00:52:59;35.60;;;20.27;;
7359;SDS011;3720;48.274;7.796;2023-02-15T00:55:31;36.30;;;20.33;;
7359;SDS011;3720;48.274;7.796;2023-02-15T00:58:03;36.55;;;20.33;;
7359;SDS011;3720;48.274;7.796;2023-02-15T01:00:35;39.72;;;21.15;;
7359;SDS011;3720;48.274;7.796;2023-02-15T01:03:09;39.08;;;20.83;;
7359;SDS011;3720;48.274;7.796;2023-02-15T01:05:42;36.05;;;20.70;;
7359;SDS011;3720;48.274;7.796;2023-02-15T01:08:14;34.35;;;19.48;;
7359;SDS011;3720;48.274;7.796;2023-02-15T01:10:46;36.90;;;20.38;;
7359;SDS011;3720;48.274;7.796;2023-02-15T01:13:19;55.17;;;20.75;;
7359;SDS011;3720;48.274;7.796;2023-02-15T01:15:52;61.70;;;20.75;;
7359;SDS011;3720;48.274;7.796;2023-02-15T01:18:27;39.28;;;20.45;;
7359;SDS011;3720;48.274;7.796;2023-02-15T01:20:58;36.03;;;20.38;;
7359;SDS011;3720;48.274;7.796;2023-02-15T01:23:32;33.63;;;19.38;;
7359;SDS011;3720;48.274;7.796;2023-02-15T01:26:04;36.55;;;20.40;;
7359;SDS011;3720;48.274;7.796;2023-02-15T01:28:36;36.75;;;20.58;;
7359;SDS011;3720;48.274;7.796;2023-02-15T01:31:08;35.60;;;19.88;;
7359;SDS011;3720;48.274;7.796;2023-02-15T01:33:44;66.57;;;21.40;;
7359;SDS011;3720;48.274;7.796;2023-02-15T01:36:17;38.70;;;20.23;;
7359;SDS011;3720;48.274;7.796;2023-02-15T01:38:49;86.00;;;20.75;;
7359;SDS011;3720;48.274;7.796;2023-02-15T01:41:21;44.67;;;20.30;;
7359;SDS011;3720;48.274;7.796;2023-02-15T01:43:58;37.53;;;20.38;;
7359;SDS011;3720;48.274;7.796;2023-02-15T01:46:33;36.72;;;19.58;;
7359;SDS011;3720;48.274;7.796;2023-02-15T01:49:09;34.47;;;19.40;;
7359;SDS011;3720;48.274;7.796;2023-02-15T01:51:45;71.00;;;21.92;;
7359;SDS011;3720;48.274;7.796;2023-02-15T01:54:20;36.08;;;18.88;;
7359;SDS011;3720;48.274;7.796;2023-02-15T01:56:56;35.67;;;19.70;;
7359;SDS011;3720;48.274;7.796;2023-02-15T01:59:35;32.97;;;19.42;;
7359;SDS011;3720;48.274;7.796;2023-02-15T02:02:08;37.13;;;19.95;;
7359;SDS011;3720;48.274;7.796;2023-02-15T02:04:45;39.45;;;20.08;;
7359;SDS011;3720;48.274;7.796;2023-02-15T02:07:21;38.60;;;20.92;;
7359;SDS011;3720;48.274;7.796;2023-02-15T02:09:55;35.40;;;19.88;;
7359;SDS011;3720;48.274;7.796;2023-02-15T02:12:27;33.25;;;18.58;;
7359;SDS011;3720;48.274;7.796;2023-02-15T02:14:59;45.00;;;20.35;;
7359;SDS011;3720;48.274;7.796;2023-02-15T02:17:33;33.47;;;19.73;;
7359;SDS011;3720;48.274;7.796;2023-02-15T02:20:24;34.03;;;19.23;;
7359;SDS011;3720;48.274;7.796;2023-02-15T02:29:21;36.53;;;20.10;;
7359;SDS011;3720;48.274;7.796;2023-02-15T02:32:23;42.65;;;20.15;;
7359;SDS011;3720;48.274;7.796;2023-02-15T02:35:15;35.05;;;19.15;;
7359;SDS011;3720;48.274;7.796;2023-02-15T02:37:55;42.72;;;20.77;;
7359;SDS011;3720;48.274;7.796;2023-02-15T02:40:34;60.67;;;20.23;;
7359;SDS011;3720;48.274;7.796;2023-02-15T02:43:15;37.33;;;19.00;;
7359;SDS011;3720;48.274;7.796;2023-02-15T02:45:54;52.40;;;20.25;;
7359;SDS011;3720;48.274;7.796;2023-02-15T02:48:32;59.53;;;19.88;;
7359;SDS011;3720;48.274;7.796;2023-02-15T02:51:05;42.25;;;19.10;;
7359;SDS011;3720;48.274;7.796;2023-02-15T02:53:37;32.80;;;18.30;;
7359;SDS011;3720;48.274;7.796;2023-02-15T02:56:10;32.17;;;18.50;;
7359;SDS011;3720;48.274;7.796;2023-02-15T02:58:49;45.78;;;20.38;;
7359;SDS011;3720;48.274;7.796;2023-02-15T03:01:27;52.47;;;20.52;;
7359;SDS011;3720;48.274;7.796;2023-02-15T03:04:05;45.38;;;20.33;;
7359;SDS011;3720;48.274;7.796;2023-02-15T03:06:42;60.97;;;22.02;;
7359;SDS011;3720;48.274;7.796;2023-02-15T03:09:20;48.08;;;20.88;;
7359;SDS011;3720;48.274;7.796;2023-02-15T03:12:04;55.47;;;21.92;;
7359;SDS011;3720;48.274;7.796;2023-02-15T03:14:37;43.05;;;20.38;;
7359;SDS011;3720;48.274;7.796;2023-02-15T03:17:10;37.05;;;19.67;;
7359;SDS011;3720;48.274;7.796;2023-02-15T03:19:46;42.95;;;19.83;;
7359;SDS011;3720;48.274;7.796;2023-02-15T03:22:20;51.80;;;18.55;;
7359;SDS011;3720;48.274;7.796;2023-02-15T03:24:57;59.78;;;18.85;;
7359;SDS011;3720;48.274;7.796;2023-02-15T03:27:33;33.85;;;18.45;;
7359;SDS011;3720;48.274;7.796;2023-02-15T03:30:10;34.40;;;17.50;;
7359;SDS011;3720;48.274;7.796;2023-02-15T03:32:44;31.70;;;17.20;;
7359;SDS011;3720;48.274;7.796;2023-02-15T03:35:21;44.15;;;18.35;;
7359;SDS011;3720;48.274;7.796;2023-02-15T03:37:57;65.38;;;19.13;;
7359;SDS011;3720;48.274;7.796;2023-02-15T03:40:32;52.95;;;18.60;;
7359;SDS011;3720;48.274;7.796;2023-02-15T03:43:27;36.75;;;18.73;;
7359;SDS011;3720;48.274;7.796;2023-02-15T03:46:05;34.72;;;18.85;;
7359;SDS011;3720;48.274;7.796;2023-02-15T03:48:40;59.87;;;20.47;;
7359;SDS011;3720;48.274;7.796;2023-02-15T03:51:18;38.20;;;18.70;;
7359;SDS011;3720;48.274;7.796;2023-02-15T03:54:07;34.97;;;19.67;;
7359;SDS011;3720;48.274;7.796;2023-02-15T03:56:41;34.70;;;19.05;;
7359;SDS011;3720;48.274;7.796;2023-02-15T03:59:34;36.05;;;19.10;;
7359;SDS011;3720;48.274;7.796;2023-02-15T04:02:24;37.88;;;18.27;;
7359;SDS011;3720;48.274;7.796;2023-02-15T04:05:05;46.30;;;18.92;;
7359;SDS011;3720;48.274;7.796;2023-02-15T04:07:38;33.22;;;17.85;;
7359;SDS011;3720;48.274;7.796;2023-02-15T04:10:10;38.38;;;18.63;;
7359;SDS011;3720;48.274;7.796;2023-02-15T04:12:59;35.55;;;18.65;;
7359;SDS011;3720;48.274;7.796;2023-02-15T04:15:31;34.28;;;18.58;;
7359;SDS011;3720;48.274;7.796;2023-02-15T04:18:21;35.95;;;18.27;;
7359;SDS011;3720;48.274;7.796;2023-02-15T04:21:06;38.75;;;19.05;;
7359;SDS011;3720;48.274;7.796;2023-02-15T04:23:57;34.38;;;18.90;;
7359;SDS011;3720;48.274;7.796;2023-02-15T04:26:46;33.17;;;18.75;;
7359;SDS011;3720;48.274;7.796;2023-02-15T04:29:18;61.75;;;18.85;;
7359;SDS011;3720;48.274;7.796;2023-02-15T04:31:50;30.08;;;17.55;;
7359;SDS011;3720;48.274;7.796;2023-02-15T04:34:22;30.67;;;17.20;;
7359;SDS011;3720;48.274;7.796;2023-02-15T04:36:54;35.15;;;18.25;;
7359;SDS011;3720;48.274;7.796;2023-02-15T04:39:28;41.80;;;19.60;;
7359;SDS011;3720;48.274;7.796;2023-02-15T04:42:00;84.53;;;21.70;;
7359;SDS011;3720;48.274;7.796;2023-02-15T04:44:32;58.65;;;21.90;;
7359;SDS011;3720;48.274;7.796;2023-02-15T04:47:04;41.75;;;19.77;;
7359;SDS011;3720;48.274;7.796;2023-02-15T04:49:36;71.72;;;20.08;;
7359;SDS011;3720;48.274;7.796;2023-02-15T04:52:08;58.63;;;19.77;;
7359;SDS011;3720;48.274;7.796;2023-02-15T04:54:41;35.63;;;19.50;;
7359;SDS011;3720;48.274;7.796;2023-02-15T04:57:13;37.10;;;20.20;;
7359;SDS011;3720;48.274;7.796;2023-02-15T04:59:45;43.97;;;20.70;;
7359;SDS011;3720;48.274;7.796;2023-02-15T05:02:17;53.08;;;20.85;;
7359;SDS011;3720;48.274;7.796;2023-02-15T05:04:49;56.17;;;20.27;;
7359;SDS011;3720;48.274;7.796;2023-02-15T05:07:21;91.10;;;21.42;;
7359;SDS011;3720;48.274;7.796;2023-02-15T05:09:54;39.38;;;20.33;;
7359;SDS011;3720;48.274;7.796;2023-02-15T05:12:26;45.65;;;21.27;;
7359;SDS011;3720;48.274;7.796;2023-02-15T05:14:58;38.45;;;19.50;;
7359;SDS011;3720;48.274;7.796;2023-02-15T05:17:30;46.13;;;19.27;;
7359;SDS011;3720;48.274;7.796;2023-02-15T05:20:02;34.80;;;19.00;;
7359;SDS011;3720;48.274;7.796;2023-02-15T05:22:34;47.05;;;20.10;;
7359;SDS011;3720;48.274;7.796;2023-02-15T05:25:09;63.88;;;20.45;;
7359;SDS011;3720;48.274;7.796;2023-02-15T05:27:58;39.50;;;20.30;;
7359;SDS011;3720;48.274;7.796;2023-02-15T05:30:47;56.83;;;20.73;;
7359;SDS011;3720;48.274;7.796;2023-02-15T05:33:20;56.97;;;20.83;;
7359;SDS011;3720;48.274;7.796;2023-02-15T05:35:51;53.78;;;21.17;;
7359;SDS011;3720;48.274;7.796;2023-02-15T05:38:23;70.47;;;22.48;;
7359;SDS011;3720;48.274;7.796;2023-02-15T05:40:57;63.67;;;20.98;;
7359;SDS011;3720;48.274;7.796;2023-02-15T05:43:28;68.07;;;21.67;;
7359;SDS011;3720;48.274;7.796;2023-02-15T05:46:00;50.45;;;21.17;;
7359;SDS011;3720;48.274;7.796;2023-02-15T05:48:33;58.67;;;22.00;;
7359;SDS011;3720;48.274;7.796;2023-02-15T05:51:06;47.70;;;22.05;;
7359;SDS011;3720;48.274;7.796;2023-02-15T05:53:39;41.38;;;20.92;;
7359;SDS011;3720;48.274;7.796;2023-02-15T05:56:13;52.33;;;23.08;;
7359;SDS011;3720;48.274;7.796;2023-02-15T05:58:45;43.05;;;21.08;;
7359;SDS011;3720;48.274;7.796;2023-02-15T06:01:17;53.80;;;21.77;;
7359;SDS011;3720;48.274;7.796;2023-02-15T06:03:51;36.83;;;19.90;;
7359;SDS011;3720;48.274;7.796;2023-02-15T06:06:24;41.55;;;19.17;;
7359;SDS011;3720;48.274;7.796;2023-02-15T06:08:56;35.63;;;19.63;;
7359;SDS011;3720;48.274;7.796;2023-02-15T06:11:29;44.67;;;19.92;;
7359;SDS011;3720;48.274;7.796;2023-02-15T06:14:01;41.70;;;17.50;;
7359;SDS011;3720;48.274;7.796;2023-02-15T06:16:32;33.17;;;16.45;;
7359;SDS011;3720;48.274;7.796;2023-02-15T06:19:04;48.55;;;17.45;;
7359;SDS011;3720;48.274;7.796;2023-02-15T06:21:36;31.52;;;17.40;;
7359;SDS011;3720;48.274;7.796;2023-02-15T06:24:08;30.13;;;16.98;;
7359;SDS011;3720;48.274;7.796;2023-02-15T06:26:42;34.50;;;17.60;;
7359;SDS011;3720;48.274;7.796;2023-02-15T06:29:14;34.80;;;17.48;;
7359;SDS011;3720;48.274;7.796;2023-02-15T06:31:46;40.40;;;18.37;;
7359;SDS011;3720;48.274;7.796;2023-02-15T06:34:17;32.03;;;17.57;;
7359;SDS011;3720;48.274;7.796;2023-02-15T06:36:49;32.65;;;18.10;;
7359;SDS011;3720;48.274;7.796;2023-02-15T06:39:21;46.78;;;19.42;;
7359;SDS011;3720;48.274;7.796;2023-02-15T06:41:55;35.70;;;19.02;;
7359;SDS011;3720;48.274;7.796;2023-02-15T06:44:27;35.80;;;18.50;;
7359;SDS011;3720;48.274;7.796;2023-02-15T06:46:59;37.90;;;18.95;;
7359;SDS011;3720;48.274;7.796;2023-02-15T06:49:30;30.45;;;17.67;;
7359;SDS011;3720;48.274;7.796;2023-02-15T06:52:03;38.65;;;18.48;;
7359;SDS011;3720;48.274;7.796;2023-02-15T06:54:35;31.00;;;17.98;;
7359;SDS011;3720;48.274;7.796;2023-02-15T06:57:08;37.55;;;19.73;;
7359;SDS011;3720;48.274;7.796;2023-02-15T06:59:40;34.92;;;19.10;;
7359;SDS011;3720;48.274;7.796;2023-02-15T07:02:12;41.75;;;19.15;;
7359;SDS011;3720;48.274;7.796;2023-02-15T07:04:45;32.38;;;18.80;;
7359;SDS011;3720;48.274;7.796;2023-02-15T07:07:16;31.23;;;17.45;;
7359;SDS011;3720;48.274;7.796;2023-02-15T07:09:49;52.17;;;18.88;;
7359;SDS011;3720;48.274;7.796;2023-02-15T07:12:22;33.20;;;18.55;;
7359;SDS011;3720;48.274;7.796;2023-02-15T07:15:11;33.33;;;18.48;;
7359;SDS011;3720;48.274;7.796;2023-02-15T07:17:46;38.78;;;19.15;;
7359;SDS011;3720;48.274;7.796;2023-02-15T07:20:19;35.20;;;18.45;;
7359;SDS011;3720;48.274;7.796;2023-02-15T07:22:52;47.67;;;19.60;;
7359;SDS011;3720;48.274;7.796;2023-02-15T07:25:23;35.70;;;19.00;;
7359;SDS011;3720;48.274;7.796;2023-02-15T07:27:57;36.38;;;19.42;;
7359;SDS011;3720;48.274;7.796;2023-02-15T07:30:30;43.97;;;18.52;;
7359;SDS011;3720;48.274;7.796;2023-02-15T07:33:02;39.30;;;18.67;;
7359;SDS011;3720;48.274;7.796;2023-02-15T07:35:52;54.05;;;19.17;;
7359;SDS011;3720;48.274;7.796;2023-02-15T07:38:27;38.72;;;20.45;;
7359;SDS011;3720;48.274;7.796;2023-02-15T07:41:03;36.50;;;18.67;;
7359;SDS011;3720;48.274;7.796;2023-02-15T07:43:38;38.03;;;20.30;;
7359;SDS011;3720;48.274;7.796;2023-02-15T07:46:12;37.92;;;20.15;;
7359;SDS011;3720;48.274;7.796;2023-02-15T07:48:46;34.70;;;18.50;;
7359;SDS011;3720;48.274;7.796;2023-02-15T07:51:19;35.47;;;18.55;;
7359;SDS011;3720;48.274;7.796;2023-02-15T07:53:51;43.47;;;19.00;;
7359;SDS011;3720;48.274;7.796;2023-02-15T07:56:22;39.05;;;18.75;;
7359;SDS011;3720;48.274;7.796;2023-02-15T07:58:56;32.63;;;17.58;;
7359;SDS011;3720;48.274;7.796;2023-02-15T08:01:30;35.67;;;17.83;;
7359;SDS011;3720;48.274;7.796;2023-02-15T08:04:04;34.10;;;17.95;;
7359;SDS011;3720;48.274;7.796;2023-02-15T08:06:37;33.58;;;18.33;;
7359;SDS011;3720;48.274;7.796;2023-02-15T08:09:09;35.40;;;17.92;;
7359;SDS011;3720;48.274;7.796;2023-02-15T08:11:42;41.90;;;18.33;;
7359;SDS011;3720;48.274;7.796;2023-02-15T08:14:16;41.15;;;19.52;;
7359;SDS011;3720;48.274;7.796;2023-02-15T08:16:50;43.20;;;18.02;;
7359;SDS011;3720;48.274;7.796;2023-02-15T08:19:26;32.78;;;17.85;;
7359;SDS011;3720;48.274;7.796;2023-02-15T08:21:59;36.03;;;18.55;;
7359;SDS011;3720;48.274;7.796;2023-02-15T08:24:33;45.30;;;20.17;;
7359;SDS011;3720;48.274;7.796;2023-02-15T08:27:08;37.55;;;20.48;;
7359;SDS011;3720;48.274;7.796;2023-02-15T08:29:43;35.60;;;20.17;;
7359;SDS011;3720;48.274;7.796;2023-02-15T08:32:15;42.50;;;20.55;;
7359;SDS011;3720;48.274;7.796;2023-02-15T08:34:47;39.92;;;20.77;;
7359;SDS011;3720;48.274;7.796;2023-02-15T08:37:19;81.97;;;22.98;;
7359;SDS011;3720;48.274;7.796;2023-02-15T08:39:51;47.97;;;20.95;;
7359;SDS011;3720;48.274;7.796;2023-02-15T08:42:22;75.35;;;21.58;;
7359;SDS011;3720;48.274;7.796;2023-02-15T08:44:56;55.90;;;19.90;;
7359;SDS011;3720;48.274;7.796;2023-02-15T08:47:27;71.18;;;21.48;;
7359;SDS011;3720;48.274;7.796;2023-02-15T08:49:59;36.40;;;19.45;;
7359;SDS011;3720;48.274;7.796;2023-02-15T08:52:31;49.80;;;20.73;;
7359;SDS011;3720;48.274;7.796;2023-02-15T08:55:03;41.30;;;19.77;;
7359;SDS011;3720;48.274;7.796;2023-02-15T08:57:35;40.58;;;20.73;;
7359;SDS011;3720;48.274;7.796;2023-02-15T09:00:10;46.65;;;22.25;;
7359;SDS011;3720;48.274;7.796;2023-02-15T09:02:43;59.92;;;22.98;;
7359;SDS011;3720;48.274;7.796;2023-02-15T09:05:15;49.95;;;24.27;;
7359;SDS011;3720;48.274;7.796;2023-02-15T09:07:46;47.17;;;24.23;;
7359;SDS011;3720;48.274;7.796;2023-02-15T09:10:18;47.60;;;24.02;;
7359;SDS011;3720;48.274;7.796;2023-02-15T09:12:51;52.17;;;24.98;;
7359;SDS011;3720;48.274;7.796;2023-02-15T09:15:25;47.53;;;23.83;;
7359;SDS011;3720;48.274;7.796;2023-02-15T09:17:57;52.80;;;23.55;;
7359;SDS011;3720;48.274;7.796;2023-02-15T09:20:34;39.85;;;21.58;;
7359;SDS011;3720;48.274;7.796;2023-02-15T09:23:06;53.03;;;22.48;;
7359;SDS011;3720;48.274;7.796;2023-02-15T09:25:38;45.78;;;24.30;;
7359;SDS011;3720;48.274;7.796;2023-02-15T09:28:12;43.20;;;22.40;;
7359;SDS011;3720;48.274;7.796;2023-02-15T09:30:45;40.97;;;22.00;;
7359;SDS011;3720;48.274;7.796;2023-02-15T09:33:17;43.33;;;22.58;;
7359;SDS011;3720;48.274;7.796;2023-02-15T09:35:49;43.60;;;22.33;;
7359;SDS011;3720;48.274;7.796;2023-02-15T09:38:21;40.63;;;21.85;;
7359;SDS011;3720;48.274;7.796;2023-02-15T09:40:54;46.35;;;23.02;;
7359;SDS011;3720;48.274;7.796;2023-02-15T09:43:38;43.30;;;22.23;;
7359;SDS011;3720;48.274;7.796;2023-02-15T09:46:24;44.80;;;22.73;;
7359;SDS011;3720;48.274;7.796;2023-02-15T09:49:09;40.17;;;22.08;;
7359;SDS011;3720;48.274;7.796;2023-02-15T09:51:54;40.58;;;21.50;;
7359;SDS011;3720;48.274;7.796;2023-02-15T09:54:41;39.05;;;21.55;;
7359;SDS011;3720;48.274;7.796;2023-02-15T09:57:27;45.33;;;21.90;;
7359;SDS011;3720;48.274;7.796;2023-02-15T10:00:10;40.83;;;22.00;;
7359;SDS011;3720;48.274;7.796;2023-02-15T10:03:00;40.15;;;21.00;;
7359;SDS011;3720;48.274;7.796;2023-02-15T10:05:47;42.58;;;21.92;;
7359;SDS011;3720;48.274;7.796;2023-02-15T10:08:35;43.30;;;21.80;;
7359;SDS011;3720;48.274;7.796;2023-02-15T10:11:25;48.00;;;21.25;;
7359;SDS011;3720;48.274;7.796;2023-02-15T10:17:15;41.95;;;22.33;;
7359;SDS011;3720;48.274;7.796;2023-02-15T10:20:03;40.17;;;21.45;;
7359;SDS011;3720;48.274;7.796;2023-02-15T10:22:48;42.90;;;22.40;;
7359;SDS011;3720;48.274;7.796;2023-02-15T10:25:33;42.90;;;22.73;;
7359;SDS011;3720;48.274;7.796;2023-02-15T10:28:13;44.17;;;22.80;;
7359;SDS011;3720;48.274;7.796;2023-02-15T10:30:49;39.65;;;21.75;;
7359;SDS011;3720;48.274;7.796;2023-02-15T10:33:26;44.67;;;23.38;;
7359;SDS011;3720;48.274;7.796;2023-02-15T10:36:15;49.75;;;25.83;;
7359;SDS011;3720;48.274;7.796;2023-02-15T10:38:58;57.50;;;27.00;;
7359;SDS011;3720;48.274;7.796;2023-02-15T10:41:37;46.47;;;25.55;;
7359;SDS011;3720;48.274;7.796;2023-02-15T10:44:22;42.80;;;23.40;;
7359;SDS011;3720;48.274;7.796;2023-02-15T10:47:13;49.03;;;26.05;;
7359;SDS011;3720;48.274;7.796;2023-02-15T10:50:11;54.95;;;28.23;;
7359;SDS011;3720;48.274;7.796;2023-02-15T10:52:57;54.00;;;27.77;;
7359;SDS011;3720;48.274;7.796;2023-02-15T10:55:43;51.63;;;26.45;;
7359;SDS011;3720;48.274;7.796;2023-02-15T10:58:24;47.70;;;24.40;;
7359;SDS011;3720;48.274;7.796;2023-02-15T11:01:10;51.92;;;27.42;;
7359;SDS011;3720;48.274;7.796;2023-02-15T11:03:54;48.28;;;27.17;;
7359;SDS011;3720;48.274;7.796;2023-02-15T11:06:46;56.72;;;27.65;;
7359;SDS011;3720;48.274;7.796;2023-02-15T11:09:25;52.90;;;26.30;;
7359;SDS011;3720;48.274;7.796;2023-02-15T11:12:00;53.35;;;27.90;;
7359;SDS011;3720;48.274;7.796;2023-02-15T11:14:34;53.83;;;28.20;;
7359;SDS011;3720;48.274;7.796;2023-02-15T11:17:11;48.30;;;27.25;;
7359;SDS011;3720;48.274;7.796;2023-02-15T11:19:47;47.72;;;26.05;;
7359;SDS011;3720;48.274;7.796;2023-02-15T11:22:26;48.47;;;25.63;;
7359;SDS011;3720;48.274;7.796;2023-02-15T11:25:00;45.30;;;25.25;;
7359;SDS011;3720;48.274;7.796;2023-02-15T11:27:34;50.90;;;26.67;;
7359;SDS011;3720;48.274;7.796;2023-02-15T11:30:09;50.17;;;27.70;;
7359;SDS011;3720;48.274;7.796;2023-02-15T11:32:46;51.10;;;27.88;;
7359;SDS011;3720;48.274;7.796;2023-02-15T11:35:24;47.58;;;25.77;;
7359;SDS011;3720;48.274;7.796;2023-02-15T11:38:01;45.78;;;25.95;;
7359;SDS011;3720;48.274;7.796;2023-02-15T11:40:41;44.05;;;24.88;;
7359;SDS011;3720;48.274;7.796;2023-02-15T11:43:20;44.17;;;24.40;;
7359;SDS011;3720;48.274;7.796;2023-02-15T11:45:56;42.50;;;23.52;;
7359;SDS011;3720;48.274;7.796;2023-02-15T11:48:28;45.92;;;25.65;;
7359;SDS011;3720;48.274;7.796;2023-02-15T11:51:02;46.85;;;25.67;;
7359;SDS011;3720;48.274;7.796;2023-02-15T11:53:36;44.25;;;23.90;;
7359;SDS011;3720;48.274;7.796;2023-02-15T11:56:13;49.53;;;25.08;;
7359;SDS011;3720;48.274;7.796;2023-02-15T11:58:47;44.42;;;24.70;;
7359;SDS011;3720;48.274;7.796;2023-02-15T12:01:24;44.67;;;24.77;;
7359;SDS011;3720;48.274;7.796;2023-02-15T12:04:04;43.80;;;25.17;;
7359;SDS011;3720;48.274;7.796;2023-02-15T12:06:41;43.25;;;24.80;;
7359;SDS011;3720;48.274;7.796;2023-02-15T12:09:17;45.78;;;25.80;;
7359;SDS011;3720;48.274;7.796;2023-02-15T12:14:54;48.40;;;26.30;;
7359;SDS011;3720;48.274;7.796;2023-02-15T12:17:28;56.67;;;28.13;;
7359;SDS011;3720;48.274;7.796;2023-02-15T12:20:04;52.83;;;27.67;;
7359;SDS011;3720;48.274;7.796;2023-02-15T12:22:53;50.78;;;26.95;;
7359;SDS011;3720;48.274;7.796;2023-02-15T12:25:33;51.55;;;27.90;;
7359;SDS011;3720;48.274;7.796;2023-02-15T12:28:19;47.58;;;26.58;;
7359;SDS011;3720;48.274;7.796;2023-02-15T12:31:01;53.72;;;29.10;;
7359;SDS011;3720;48.274;7.796;2023-02-15T12:33:35;51.80;;;28.85;;
7359;SDS011;3720;48.274;7.796;2023-02-15T12:36:17;54.40;;;29.05;;
7359;SDS011;3720;48.274;7.796;2023-02-15T12:39:04;53.25;;;28.95;;
7359;SDS011;3720;48.274;7.796;2023-02-15T12:42:00;53.35;;;28.05;;
7359;SDS011;3720;48.274;7.796;2023-02-15T12:44:35;52.95;;;28.30;;
7359;SDS011;3720;48.274;7.796;2023-02-15T12:47:17;54.50;;;28.55;;
7359;SDS011;3720;48.274;7.796;2023-02-15T12:52:50;54.67;;;28.70;;
7359;SDS011;3720;48.274;7.796;2023-02-15T12:55:36;57.72;;;29.95;;
7359;SDS011;3720;48.274;7.796;2023-02-15T12:58:12;55.85;;;28.92;;
7359;SDS011;3720;48.274;7.796;2023-02-15T13:00:52;55.45;;;29.48;;
7359;SDS011;3720;48.274;7.796;2023-02-15T13:03:35;55.43;;;29.40;;
7359;SDS011;3720;48.274;7.796;2023-02-15T13:06:09;52.08;;;28.38;;
7359;SDS011;3720;48.274;7.796;2023-02-15T13:08:45;51.22;;;28.23;;
7359;SDS011;3720;48.274;7.796;2023-02-15T13:11:19;53.40;;;28.70;;
7359;SDS011;3720;48.274;7.796;2023-02-15T13:13:56;54.28;;;29.15;;
7359;SDS011;3720;48.274;7.796;2023-02-15T13:16:32;52.45;;;27.95;;
7359;SDS011;3720;48.274;7.796;2023-02-15T13:19:06;53.25;;;29.20;;
7359;SDS011;3720;48.274;7.796;2023-02-15T13:21:43;53.70;;;29.50;;
7359;SDS011;3720;48.274;7.796;2023-02-15T13:24:17;53.70;;;28.38;;
7359;SDS011;3720;48.274;7.796;2023-02-15T13:26:54;52.13;;;29.58;;
7359;SDS011;3720;48.274;7.796;2023-02-15T13:29:28;52.53;;;29.63;;
7359;SDS011;3720;48.274;7.796;2023-02-15T13:32:05;52.10;;;29.50;;
7359;SDS011;3720;48.274;7.796;2023-02-15T13:34:42;48.20;;;27.23;;
7359;SDS011;3720;48.274;7.796;2023-02-15T13:37:15;53.03;;;29.13;;
7359;SDS011;3720;48.274;7.796;2023-02-15T13:39:51;52.72;;;29.33;;
7359;SDS011;3720;48.274;7.796;2023-02-15T13:42:30;52.92;;;27.98;;
7359;SDS011;3720;48.274;7.796;2023-02-15T13:45:13;46.97;;;26.85;;
7359;SDS011;3720;48.274;7.796;2023-02-15T13:48:03;50.80;;;28.05;;
7359;SDS011;3720;48.274;7.796;2023-02-15T13:50:50;51.13;;;27.58;;
7359;SDS011;3720;48.274;7.796;2023-02-15T13:53:39;48.45;;;27.75;;
7359;SDS011;3720;48.274;7.796;2023-02-15T13:56:24;45.10;;;25.65;;
7359;SDS011;3720;48.274;7.796;2023-02-15T13:59:13;53.97;;;29.48;;
7359;SDS011;3720;48.274;7.796;2023-02-15T14:01:57;54.10;;;29.20;;
7359;SDS011;3720;48.274;7.796;2023-02-15T14:04:43;48.47;;;26.75;;
7359;SDS011;3720;48.274;7.796;2023-02-15T14:07:43;46.92;;;26.30;;
7359;SDS011;3720;48.274;7.796;2023-02-15T14:10:29;52.83;;;28.10;;
7359;SDS011;3720;48.274;7.796;2023-02-15T14:13:29;53.65;;;29.40;;
7359;SDS011;3720;48.274;7.796;2023-02-15T14:16:27;51.67;;;29.60;;
7359;SDS011;3720;48.274;7.796;2023-02-15T14:19:13;46.53;;;26.35;;
7359;SDS011;3720;48.274;7.796;2023-02-15T14:21:54;46.88;;;25.95;;
7359;SDS011;3720;48.274;7.796;2023-02-15T14:24:33;48.05;;;26.88;;
7359;SDS011;3720;48.274;7.796;2023-02-15T14:27:16;48.47;;;27.17;;
7359;SDS011;3720;48.274;7.796;2023-02-15T14:29:54;42.92;;;24.92;;
7359;SDS011;3720;48.274;7.796;2023-02-15T14:32:29;44.67;;;26.08;;
7359;SDS011;3720;48.274;7.796;2023-02-15T14:35:09;47.03;;;26.65;;
7359;SDS011;3720;48.274;7.796;2023-02-15T14:37:49;44.53;;;26.00;;
7359;SDS011;3720;48.274;7.796;2023-02-15T14:40:30;47.42;;;27.95;;
7359;SDS011;3720;48.274;7.796;2023-02-15T14:43:29;49.90;;;28.98;;
7359;SDS011;3720;48.274;7.796;2023-02-15T14:46:10;49.22;;;28.73;;
7359;SDS011;3720;48.274;7.796;2023-02-15T14:48:52;49.70;;;27.70;;
7359;SDS011;3720;48.274;7.796;2023-02-15T14:57:32;48.13;;;27.00;;
7359;SDS011;3720;48.274;7.796;2023-02-15T15:03:19;52.13;;;28.70;;
7359;SDS011;3720;48.274;7.796;2023-02-15T15:05:54;52.92;;;28.88;;
7359;SDS011;3720;48.274;7.796;2023-02-15T15:08:29;48.15;;;27.42;;
7359;SDS011;3720;48.274;7.796;2023-02-15T15:17:11;51.80;;;29.77;;
7359;SDS011;3720;48.274;7.796;2023-02-15T15:22:34;58.30;;;30.58;;
7359;SDS011;3720;48.274;7.796;2023-02-15T15:25:12;60.03;;;30.60;;
7359;SDS011;3720;48.274;7.796;2023-02-15T15:31:28;45.90;;;26.50;;
7359;SDS011;3720;48.274;7.796;2023-02-15T15:37:39;46.72;;;26.85;;
7359;SDS011;3720;48.274;7.796;2023-02-15T15:46:40;44.53;;;25.95;;
7359;SDS011;3720;48.274;7.796;2023-02-15T15:49:31;44.47;;;26.50;;
7359;SDS011;3720;48.274;7.796;2023-02-15T15:52:09;43.63;;;26.58;;
7359;SDS011;3720;48.274;7.796;2023-02-15T15:54:46;46.63;;;26.83;;
7359;SDS011;3720;48.274;7.796;2023-02-15T15:57:24;45.63;;;27.10;;
7359;SDS011;3720;48.274;7.796;2023-02-15T15:59:59;45.80;;;26.60;;
7359;SDS011;3720;48.274;7.796;2023-02-15T16:02:32;46.50;;;26.67;;
7359;SDS011;3720;48.274;7.796;2023-02-15T16:05:08;49.05;;;27.20;;
7359;SDS011;3720;48.274;7.796;2023-02-15T16:07:40;45.47;;;27.43;;
7359;SDS011;3720;48.274;7.796;2023-02-15T16:10:19;49.65;;;28.30;;
7359;SDS011;3720;48.274;7.796;2023-02-15T16:12:53;49.10;;;28.30;;
7359;SDS011;3720;48.274;7.796;2023-02-15T16:15:29;47.85;;;28.17;;
7359;SDS011;3720;48.274;7.796;2023-02-15T16:18:10;53.25;;;30.55;;
7359;SDS011;3720;48.274;7.796;2023-02-15T16:20:48;50.13;;;28.92;;
7359;SDS011;3720;48.274;7.796;2023-02-15T16:23:28;51.40;;;29.23;;
7359;SDS011;3720;48.274;7.796;2023-02-15T16:26:35;49.90;;;28.75;;
7359;SDS011;3720;48.274;7.796;2023-02-15T16:29:30;51.08;;;30.85;;
7359;SDS011;3720;48.274;7.796;2023-02-15T16:32:04;53.83;;;30.35;;
7359;SDS011;3720;48.274;7.796;2023-02-15T16:34:38;58.10;;;32.63;;